createdAt,value
2019-06-07T00:02:13.301Z,16.70
2019-06-07T00:04:48.841Z,16.60
2019-06-07T00:07:22.695Z,16.50
2019-06-07T00:12:37.816Z,16.50
2019-06-07T00:15:16.389Z,16.60
2019-06-07T00:17:47.814Z,16.60
2019-06-07T00:20:23.638Z,16.70
2019-06-07T00:22:58.660Z,16.60
2019-06-07T00:25:33.996Z,16.30
2019-06-07T00:28:08.218Z,16.30
2019-06-07T00:30:51.770Z,16.40
2019-06-07T00:33:23.976Z,16.50
2019-06-07T00:35:55.116Z,16.50
2019-06-07T00:38:28.959Z,16.50
2019-06-07T00:41:02.771Z,16.60
2019-06-07T00:43:38.979Z,16.50
2019-06-07T00:46:14.380Z,16.50
2019-06-07T00:48:48.070Z,16.50
2019-06-07T00:51:23.899Z,16.60
2019-06-07T00:57:43.230Z,16.60
2019-06-07T01:00:22.348Z,16.40
2019-06-07T01:02:53.682Z,16.50
2019-06-07T01:05:31.410Z,16.50
2019-06-07T01:08:04.634Z,16.60
2019-06-07T01:10:52.833Z,16.60
2019-06-07T01:13:18.840Z,16.50
2019-06-07T01:15:58.422Z,16.50
2019-06-07T01:18:46.440Z,16.40
2019-06-07T01:21:36.354Z,16.40
2019-06-07T01:24:12.559Z,16.30
2019-06-07T01:26:45.712Z,16.40
2019-06-07T01:31:59.851Z,16.40
2019-06-07T01:34:34.533Z,16.40
2019-06-07T01:37:08.358Z,16.20
2019-06-07T01:39:42.309Z,16.20
2019-06-07T01:42:18.095Z,16.10
2019-06-07T01:44:51.395Z,16.20
2019-06-07T01:47:28.760Z,16.20
2019-06-07T01:50:01.681Z,16.10
2019-06-07T01:52:35.528Z,15.90
2019-06-07T01:55:10.180Z,15.80
2019-06-07T01:57:48.347Z,15.80
2019-06-07T02:00:23.209Z,15.60
2019-06-07T02:02:55.494Z,15.60
2019-06-07T02:05:30.854Z,15.70
2019-06-07T02:08:08.019Z,15.60
2019-06-07T02:10:41.922Z,15.60
2019-06-07T02:13:15.897Z,15.60
2019-06-07T02:15:49.714Z,15.70
2019-06-07T02:18:26.075Z,15.20
2019-06-07T02:20:58.862Z,15.10
2019-06-07T02:23:33.759Z,15.30
2019-06-07T02:26:10.820Z,15.40
2019-06-07T02:28:45.708Z,15.40
2019-06-07T02:31:21.645Z,15.50
2019-06-07T02:33:58.994Z,15.50
2019-06-07T02:36:39.144Z,15.50
2019-06-07T02:39:09.017Z,15.20
2019-06-07T02:41:50.273Z,14.60
2019-06-07T02:44:27.962Z,14.60
2019-06-07T02:50:15.322Z,15.00
2019-06-07T02:52:50.690Z,15.10
2019-06-07T02:55:27.396Z,14.70
2019-06-07T02:58:00.010Z,14.80
2019-06-07T03:03:29.927Z,15.10
2019-06-07T03:06:03.296Z,15.10
2019-06-07T03:08:41.230Z,15.10
2019-06-07T03:11:31.656Z,15.30
2019-06-07T03:14:06.079Z,15.40
2019-06-07T03:16:44.610Z,15.50
2019-06-07T03:19:22.975Z,15.60
2019-06-07T03:21:56.919Z,15.70
2019-06-07T03:27:36.075Z,15.90
2019-06-07T03:29:49.423Z,15.80
2019-06-07T03:32:46.740Z,15.90
2019-06-07T03:35:15.344Z,15.90
2019-06-07T03:43:45.864Z,16.20
2019-06-07T03:46:19.722Z,16.20
2019-06-07T03:48:54.620Z,16.30
2019-06-07T03:51:30.111Z,16.40
2019-06-07T03:54:05.094Z,16.50
2019-06-07T03:56:41.019Z,16.70
2019-06-07T03:59:15.190Z,16.80
2019-06-07T04:01:49.082Z,16.50
2019-06-07T04:04:22.897Z,16.70
2019-06-07T04:06:56.638Z,16.80
2019-06-07T04:09:33.731Z,16.90
2019-06-07T04:12:06.033Z,17.00
2019-06-07T04:14:42.490Z,17.10
2019-06-07T04:17:15.301Z,17.20
2019-06-07T04:19:49.920Z,17.30
2019-06-07T04:22:23.881Z,17.30
2019-06-07T04:24:59.835Z,17.30
2019-06-07T04:27:37.706Z,17.30
2019-06-07T04:30:12.020Z,17.40
2019-06-07T04:36:44.170Z,17.50
2019-06-07T04:39:07.600Z,17.50
2019-06-07T04:44:41.132Z,17.70
2019-06-07T04:47:20.548Z,17.30
2019-06-07T04:49:56.178Z,17.40
2019-06-07T04:52:32.470Z,17.60
2019-06-07T04:55:08.067Z,17.70
2019-06-07T04:57:43.070Z,17.70
2019-06-07T05:00:48.744Z,17.90
2019-06-07T05:03:21.651Z,18.00
2019-06-07T05:05:44.263Z,18.00
2019-06-07T05:08:28.013Z,18.10
2019-06-07T05:10:53.602Z,18.20
2019-06-07T05:13:27.368Z,18.30
2019-06-07T05:16:18.029Z,18.40
2019-06-07T05:18:51.903Z,18.40
2019-06-07T05:21:48.098Z,18.50
2019-06-07T05:27:58.024Z,18.70
2019-06-07T05:36:00.113Z,18.90
2019-06-07T05:38:35.939Z,19.00
2019-06-07T05:41:09.660Z,19.10
2019-06-07T05:43:51.489Z,19.20
2019-06-07T05:46:23.289Z,19.10
2019-06-07T05:48:58.562Z,19.30
2019-06-07T05:51:34.732Z,19.40
2019-06-07T05:54:08.700Z,19.50
2019-06-07T05:56:45.052Z,19.50
2019-06-07T05:59:19.070Z,19.60
2019-06-07T06:01:59.770Z,19.70
2019-06-07T06:04:28.584Z,19.80
2019-06-07T06:10:14.718Z,20.10
2019-06-07T06:12:51.851Z,20.10
2019-06-07T06:15:41.612Z,20.30
2019-06-07T06:17:59.599Z,20.40
2019-06-07T06:20:54.583Z,20.50
2019-06-07T06:23:12.090Z,20.50
2019-06-07T06:25:59.602Z,20.60
2019-06-07T06:28:30.854Z,20.70
2019-06-07T06:31:05.575Z,20.70
2019-06-07T06:33:39.872Z,20.80
2019-06-07T06:36:14.794Z,20.70
2019-06-07T06:38:49.697Z,20.80
2019-06-07T06:41:24.093Z,20.90
2019-06-07T06:43:58.391Z,21.00
2019-06-07T06:46:39.083Z,21.20
2019-06-07T06:49:07.839Z,21.30
2019-06-07T06:51:43.098Z,21.30
2019-06-07T06:54:39.331Z,21.40
2019-06-07T06:57:16.016Z,21.40
2019-06-07T06:59:52.545Z,21.50
2019-06-07T07:02:25.683Z,21.60
2019-06-07T07:05:00.031Z,21.80
2019-06-07T07:07:34.359Z,21.50
2019-06-07T07:10:11.890Z,21.60
2019-06-07T07:12:47.828Z,21.60
2019-06-07T07:15:21.181Z,21.60
2019-06-07T07:18:07.811Z,21.80
2019-06-07T07:20:31.858Z,21.90
2019-06-07T07:23:06.637Z,22.00
2019-06-07T07:28:50.750Z,22.00
2019-06-07T07:31:25.060Z,22.20
2019-06-07T07:34:30.936Z,22.30
2019-06-07T07:36:39.268Z,22.50
2019-06-07T07:39:12.800Z,22.40
2019-06-07T07:42:12.273Z,22.50
2019-06-07T07:44:22.089Z,22.60
2019-06-07T07:46:57.009Z,22.60
2019-06-07T07:49:32.369Z,22.80
2019-06-07T07:52:07.604Z,22.60
2019-06-07T07:54:42.420Z,22.70
2019-06-07T07:57:16.158Z,22.80
2019-06-07T08:00:48.495Z,22.90
2019-06-07T08:02:48.789Z,23.10
2019-06-07T08:08:29.191Z,23.20
2019-06-07T08:11:03.044Z,23.50
2019-06-07T08:13:37.423Z,23.80
2019-06-07T08:16:18.819Z,23.60
2019-06-07T08:18:57.120Z,23.70
2019-06-07T08:24:18.387Z,23.90
2019-06-07T08:30:00.588Z,23.90
2019-06-07T08:32:20.223Z,23.80
2019-06-07T08:35:01.725Z,24.00
2019-06-07T08:38:13.930Z,23.90
2019-06-07T08:40:10.785Z,24.10
2019-06-07T08:43:04.540Z,24.20
2019-06-07T08:45:20.824Z,24.30
2019-06-07T08:48:01.030Z,24.20
2019-06-07T08:50:30.116Z,24.60
2019-06-07T08:53:11.867Z,24.70
2019-06-07T08:55:39.271Z,24.40
2019-06-07T08:58:13.126Z,24.20
2019-06-07T09:00:48.271Z,24.40
2019-06-07T09:03:22.189Z,24.30
2019-06-07T09:05:57.084Z,24.30
2019-06-07T09:08:31.783Z,24.40
2019-06-07T09:11:10.887Z,24.40
2019-06-07T09:13:41.057Z,24.40
2019-06-07T09:16:14.901Z,24.30
2019-06-07T09:18:50.353Z,24.30
2019-06-07T09:21:25.183Z,24.30
2019-06-07T09:24:07.068Z,24.40
2019-06-07T09:26:37.219Z,24.70
2019-06-07T09:29:12.831Z,24.60
2019-06-07T09:31:53.409Z,24.50
2019-06-07T09:34:24.718Z,24.70
2019-06-07T09:39:59.566Z,24.90
2019-06-07T09:42:32.610Z,24.70
2019-06-07T09:45:20.513Z,24.80
2019-06-07T09:47:57.055Z,25.20
2019-06-07T09:50:32.216Z,25.10
2019-06-07T09:53:21.174Z,25.20
2019-06-07T09:55:44.993Z,25.40
2019-06-07T09:58:51.177Z,25.60
2019-06-07T10:01:17.629Z,25.60
2019-06-07T10:03:51.471Z,25.60
2019-06-07T10:06:25.390Z,25.70
2019-06-07T10:11:40.000Z,25.60
2019-06-07T10:14:14.044Z,25.20
2019-06-07T10:16:48.983Z,25.00
2019-06-07T10:19:22.764Z,24.80
2019-06-07T10:21:56.958Z,24.80
2019-06-07T10:24:30.773Z,24.10
2019-06-07T10:27:05.908Z,24.30
2019-06-07T10:29:39.722Z,23.20
2019-06-07T10:32:13.617Z,23.20
2019-06-07T10:34:48.889Z,23.10
2019-06-07T10:37:22.761Z,23.00
2019-06-07T10:39:56.604Z,22.70
2019-06-07T10:42:30.427Z,22.30
2019-06-07T10:45:06.629Z,22.60
2019-06-07T11:12:31.867Z,21.90
2019-06-07T11:15:08.952Z,21.80
2019-06-07T11:17:43.258Z,21.90
2019-06-07T11:20:18.631Z,21.80
2019-06-07T11:22:52.671Z,22.30
2019-06-07T11:25:26.490Z,22.40
2019-06-07T11:28:00.395Z,22.60
2019-06-07T11:30:35.210Z,22.70
2019-06-07T11:33:11.877Z,22.60
2019-06-07T11:35:52.220Z,22.70
2019-06-07T11:38:26.024Z,22.80
2019-06-07T11:40:59.924Z,22.80
2019-06-07T11:43:33.737Z,23.00
2019-06-07T11:46:08.773Z,23.00
2019-06-07T11:48:43.251Z,22.80
2019-06-07T11:51:18.964Z,22.70
2019-06-07T11:54:00.075Z,23.10
2019-06-07T11:56:39.874Z,23.30
2019-06-07T11:59:13.722Z,23.90
2019-06-07T12:01:47.552Z,24.10
2019-06-07T12:04:46.165Z,24.10
2019-06-07T12:07:30.046Z,23.90
2019-06-07T12:10:10.886Z,23.70
2019-06-07T12:12:45.911Z,23.70
2019-06-07T12:15:20.316Z,23.80
2019-06-07T12:17:54.073Z,24.00
2019-06-07T12:20:27.952Z,24.30
2019-06-07T12:23:01.867Z,24.60
2019-06-07T12:25:36.792Z,24.80
2019-06-07T12:28:12.601Z,25.10
2019-06-07T12:30:46.377Z,25.20
2019-06-07T12:33:21.721Z,25.40
2019-06-07T12:35:55.680Z,26.10
2019-06-07T12:38:29.580Z,26.30
2019-06-07T12:41:03.300Z,26.40
2019-06-07T12:43:37.163Z,26.60
2019-06-07T12:46:14.640Z,26.50
2019-06-07T12:48:46.471Z,27.10
2019-06-07T12:51:23.370Z,27.30
2019-06-07T12:53:57.521Z,27.00
2019-06-07T12:56:31.295Z,27.10
2019-06-07T12:59:05.201Z,27.60
2019-06-07T13:01:42.452Z,28.00
2019-06-07T13:04:18.530Z,27.50
2019-06-07T13:06:52.414Z,27.10
2019-06-07T13:09:28.646Z,26.80
2019-06-07T13:12:09.097Z,26.70
2019-06-07T13:14:42.945Z,26.60
2019-06-07T13:17:18.368Z,26.40
2019-06-07T13:19:52.396Z,26.30
2019-06-07T13:22:26.263Z,26.20
2019-06-07T13:25:00.012Z,26.00
2019-06-07T13:27:34.119Z,25.40
2019-06-07T13:30:10.942Z,25.50
2019-06-07T13:32:46.323Z,25.90
2019-06-07T13:38:29.139Z,28.00
2019-06-07T13:41:03.061Z,29.10
2019-06-07T13:43:36.941Z,29.10
2019-06-07T13:46:18.997Z,29.20
2019-06-07T13:52:17.200Z,28.70
2019-06-07T13:54:51.051Z,28.30
2019-06-07T13:57:58.299Z,27.80
2019-06-07T14:00:14.213Z,27.30
2019-06-07T14:02:51.227Z,26.90
2019-06-07T14:05:25.167Z,26.50
2019-06-07T14:08:45.484Z,26.20
2019-06-07T14:11:19.530Z,25.80
2019-06-07T14:13:53.453Z,25.40
2019-06-07T14:16:28.350Z,25.30
2019-06-07T14:19:02.445Z,25.10
2019-06-07T14:21:51.595Z,24.90
2019-06-07T14:24:17.601Z,24.70
2019-06-07T14:27:08.155Z,24.80
2019-06-07T14:29:42.068Z,24.80
2019-06-07T14:32:15.843Z,24.70
2019-06-07T14:34:49.655Z,24.40
2019-06-07T14:37:37.583Z,24.70
2019-06-07T14:40:13.396Z,24.60
2019-06-07T14:42:48.158Z,24.60
2019-06-07T14:45:23.542Z,24.70
2019-06-07T14:50:53.307Z,24.90
2019-06-07T14:53:27.415Z,25.00
2019-06-07T14:56:10.874Z,25.20
2019-06-07T14:58:46.384Z,25.30
2019-06-07T15:01:20.143Z,25.90
2019-06-07T15:03:53.812Z,26.10
2019-06-07T15:09:35.364Z,26.10
2019-06-07T15:12:26.139Z,25.90
2019-06-07T15:15:00.976Z,25.80
2019-06-07T15:17:35.722Z,25.70
2019-06-07T15:20:13.245Z,25.40
2019-06-07T15:22:57.944Z,25.30
2019-06-07T15:25:33.129Z,25.20
2019-06-07T15:28:07.924Z,24.90
2019-06-07T15:30:41.861Z,24.90
2019-06-07T15:33:15.657Z,24.90
2019-06-07T15:35:49.443Z,24.80
2019-06-07T15:38:23.143Z,24.80
2019-06-07T16:40:32.847Z,22.60
2019-06-07T16:43:22.947Z,22.90
2019-06-07T16:45:56.899Z,23.20
2019-06-07T16:48:30.746Z,23.20
2019-06-07T16:51:04.660Z,23.40
2019-06-07T16:53:49.108Z,23.70
2019-06-07T17:00:27.664Z,23.70
2019-06-07T17:03:01.530Z,23.30
2019-06-07T17:05:35.669Z,23.60
2019-06-07T17:08:13.224Z,23.60
2019-06-07T17:53:48.011Z,22.50
2019-06-07T17:56:21.830Z,22.60
2019-06-07T17:58:55.613Z,22.60
2019-06-07T18:01:41.188Z,22.60
2019-06-07T18:07:14.859Z,22.50
2019-06-07T18:13:30.348Z,22.50
2019-06-07T18:16:04.037Z,22.20
2019-06-07T18:18:37.777Z,22.00
2019-06-07T18:21:13.000Z,21.80
2019-06-07T18:23:46.806Z,21.40
2019-06-07T18:26:20.595Z,21.20
2019-06-07T18:31:46.915Z,21.10
2019-06-07T18:34:20.744Z,20.90
2019-06-07T18:36:55.295Z,20.90
2019-06-07T18:39:29.069Z,21.00
2019-06-07T18:42:03.559Z,21.10
2019-06-07T18:44:37.215Z,21.10
2019-06-07T18:47:10.924Z,21.00
2019-06-07T18:49:45.189Z,20.90
2019-06-07T18:52:20.491Z,20.90
2019-06-07T18:54:55.058Z,20.90
2019-06-07T18:57:28.970Z,20.80
2019-06-07T19:00:02.688Z,20.80
2019-06-07T19:02:37.636Z,20.70
2019-06-07T19:05:13.324Z,20.40
2019-06-07T19:07:48.382Z,20.40
2019-06-07T19:10:22.807Z,20.40
2019-06-07T19:12:57.420Z,20.10
2019-06-07T19:15:31.489Z,20.20
2019-06-07T19:18:05.980Z,20.20
2019-06-07T19:20:39.731Z,20.10
2019-06-07T19:23:13.522Z,19.90
2019-06-07T19:25:47.733Z,19.90
2019-06-07T19:28:21.441Z,19.70
2019-06-07T19:30:55.267Z,19.40
2019-06-07T19:33:28.951Z,19.30
2019-06-07T19:36:02.711Z,19.30
2019-06-07T19:38:37.630Z,19.20
2019-06-07T19:41:19.285Z,19.10
2019-06-07T19:43:47.620Z,19.10
2019-06-07T19:46:21.499Z,19.00
2019-06-07T19:48:56.490Z,19.10
2019-06-07T19:51:30.423Z,18.90
2019-06-07T19:54:04.429Z,18.70
2019-06-07T19:56:38.393Z,18.70
2019-06-07T19:59:12.199Z,18.90
2019-06-07T20:01:46.580Z,19.00
2019-06-07T20:04:23.399Z,19.00
2019-06-07T20:06:58.231Z,19.00
2019-06-07T20:09:32.079Z,19.00
2019-06-07T20:12:06.400Z,18.70
2019-06-07T20:14:40.187Z,18.50
2019-06-07T20:17:13.735Z,18.50
2019-06-07T20:19:47.840Z,18.40
2019-06-07T20:22:22.729Z,18.40
2019-06-07T20:24:56.790Z,18.60
2019-06-07T20:27:30.727Z,18.50
2019-06-07T20:30:08.579Z,18.50
2019-06-07T20:32:43.504Z,18.60
2019-06-07T20:35:17.478Z,18.60
2019-06-07T20:37:51.212Z,18.50
2019-06-07T20:40:25.191Z,18.40
2019-06-07T20:42:59.384Z,18.50
2019-06-07T20:45:34.409Z,18.50
2019-06-07T20:48:13.733Z,18.40
2019-06-07T20:50:48.140Z,18.10
2019-06-07T20:53:21.954Z,18.20
2019-06-07T20:55:55.762Z,18.20
2019-06-07T20:58:29.493Z,18.10
2019-06-07T21:01:06.914Z,18.00
2019-06-07T21:03:43.944Z,17.70
2019-06-07T21:06:17.660Z,17.70
2019-06-07T21:08:51.535Z,17.70
2019-06-07T21:11:25.773Z,17.80
2019-06-07T21:13:59.922Z,17.60
2019-06-07T21:16:33.853Z,17.50
2019-06-07T21:19:08.318Z,17.60
2019-06-07T21:21:43.070Z,17.60
2019-06-07T21:24:17.679Z,17.60
2019-06-07T21:26:53.310Z,17.80
2019-06-07T21:29:27.403Z,17.70
2019-06-07T21:32:01.341Z,17.70
2019-06-07T21:34:35.150Z,17.40
2019-06-07T21:37:09.985Z,17.40
2019-06-07T21:39:45.600Z,17.30
2019-06-07T21:42:19.543Z,17.30
2019-06-07T21:44:53.271Z,17.40
2019-06-07T21:47:26.982Z,17.50
2019-06-07T21:50:04.918Z,17.50
2019-06-07T21:52:38.842Z,17.40
2019-06-07T21:55:13.706Z,17.30
2019-06-07T21:58:05.159Z,17.30
2019-06-07T22:00:58.459Z,17.30
2019-06-07T22:03:32.702Z,17.30
2019-06-07T22:06:09.748Z,17.40
2019-06-07T22:08:43.645Z,17.40
2019-06-07T22:11:17.542Z,17.50
2019-06-07T22:13:52.081Z,17.50
2019-06-07T22:16:29.186Z,17.40
2019-06-07T22:19:01.360Z,17.30
2019-06-07T22:21:35.230Z,17.30
2019-06-07T22:24:08.972Z,17.30
2019-06-07T22:26:43.603Z,17.40
2019-06-07T22:29:19.258Z,17.30
2019-06-07T22:31:52.806Z,17.40
2019-06-07T22:34:26.515Z,17.40
2019-06-07T22:37:00.255Z,17.50
2019-06-07T22:39:35.538Z,17.50
2019-06-07T22:42:11.999Z,17.60
2019-06-07T22:44:46.254Z,17.60
2019-06-07T22:47:20.019Z,17.70
2019-06-07T22:49:53.732Z,17.60
2019-06-07T22:52:27.583Z,17.70
2019-06-07T22:55:01.422Z,17.60
2019-06-07T22:57:53.952Z,17.60
2019-06-07T23:00:36.171Z,17.50
2019-06-07T23:03:10.666Z,17.60
2019-06-07T23:05:44.524Z,17.60
2019-06-07T23:08:19.113Z,17.60
2019-06-07T23:10:52.872Z,17.60
2019-06-07T23:13:26.609Z,17.70
2019-06-07T23:16:00.344Z,17.70
2019-06-07T23:18:34.192Z,17.60
2019-06-07T23:21:08.014Z,17.60
2019-06-07T23:23:41.850Z,17.60
2019-06-07T23:26:16.228Z,17.60
2019-06-07T23:28:50.000Z,17.60
2019-06-07T23:31:23.819Z,17.60
2019-06-07T23:33:57.551Z,17.00
2019-06-07T23:36:31.312Z,17.20
2019-06-07T23:39:07.417Z,17.30
2019-06-07T23:41:41.833Z,17.30
2019-06-07T23:44:15.690Z,17.00
2019-06-07T23:46:49.482Z,16.80
2019-06-07T23:49:23.320Z,16.70
2019-06-07T23:51:57.033Z,16.90
2019-06-07T23:54:30.741Z,17.00
2019-06-07T23:57:04.599Z,16.90
2019-06-07T23:59:39.428Z,16.80
